createdAt,value
2023-02-20T00:01:36.514Z,56.21
2023-02-20T00:04:04.298Z,56.14
2023-02-20T00:06:31.873Z,55.96
2023-02-20T00:09:00.916Z,56.11
2023-02-20T00:11:28.564Z,56.41
2023-02-20T00:13:56.154Z,56.41
2023-02-20T00:16:23.749Z,56.24
2023-02-20T00:18:51.462Z,56.12
2023-02-20T00:21:19.041Z,56.37
2023-02-20T00:23:46.702Z,56.34
2023-02-20T00:26:16.136Z,56.63
2023-02-20T00:28:45.255Z,56.31
2023-02-20T00:31:15.779Z,56.11
2023-02-20T00:33:43.934Z,56.61
2023-02-20T00:36:16.849Z,56.48
2023-02-20T00:38:44.769Z,56.61
2023-02-20T00:41:14.158Z,56.71
2023-02-20T00:43:43.466Z,56.86
2023-02-20T00:46:13.213Z,56.68
2023-02-20T00:48:41.134Z,56.72
2023-02-20T00:51:08.718Z,56.41
2023-02-20T00:53:36.340Z,56.99
2023-02-20T00:56:03.979Z,56.79
2023-02-20T00:58:31.610Z,56.98
2023-02-20T01:01:00.594Z,56.73
2023-02-20T01:03:28.202Z,56.80
2023-02-20T01:05:55.844Z,56.77
2023-02-20T01:08:23.525Z,57.01
2023-02-20T01:10:51.375Z,56.82
2023-02-20T01:13:19.443Z,57.14
2023-02-20T01:15:47.255Z,57.34
2023-02-20T01:18:16.270Z,57.07
2023-02-20T01:20:43.893Z,57.13
2023-02-20T01:23:11.595Z,57.10
2023-02-20T01:25:39.165Z,57.35
2023-02-20T01:28:06.940Z,56.79
2023-02-20T01:30:34.625Z,57.39
2023-02-20T01:33:02.286Z,57.20
2023-02-20T01:35:32.092Z,57.22
2023-02-20T01:38:00.265Z,57.27
2023-02-20T01:40:29.144Z,57.26
2023-02-20T01:42:56.803Z,57.48
2023-02-20T01:45:33.489Z,57.26
2023-02-20T01:48:02.591Z,57.50
2023-02-20T01:50:36.407Z,57.30
2023-02-20T01:53:07.830Z,57.27
2023-02-20T01:55:40.355Z,56.92
2023-02-20T01:58:13.747Z,57.44
2023-02-20T02:00:41.612Z,57.14
2023-02-20T02:03:11.706Z,57.24
2023-02-20T02:05:44.768Z,57.44
2023-02-20T02:08:15.265Z,57.51
2023-02-20T02:10:51.118Z,57.50
2023-02-20T02:13:18.818Z,57.38
2023-02-20T02:15:46.415Z,57.71
2023-02-20T02:18:40.726Z,57.48
2023-02-20T02:21:37.881Z,57.59
2023-02-20T02:24:28.840Z,57.82
2023-02-20T02:27:27.119Z,57.58
2023-02-20T02:30:29.444Z,57.44
2023-02-20T02:33:19.509Z,57.70
2023-02-20T02:36:20.317Z,57.88
2023-02-20T02:38:56.495Z,57.77
2023-02-20T02:41:33.825Z,57.62
2023-02-20T02:44:08.914Z,57.71
2023-02-20T02:46:43.822Z,57.46
2023-02-20T02:49:20.807Z,57.78
2023-02-20T02:51:53.768Z,57.68
2023-02-20T02:54:27.229Z,58.15
2023-02-20T02:57:15.566Z,57.89
2023-02-20T02:59:44.914Z,57.86
2023-02-20T03:02:16.357Z,57.94
2023-02-20T03:04:47.530Z,57.77
2023-02-20T03:07:19.751Z,57.82
2023-02-20T03:09:53.476Z,57.80
2023-02-20T03:12:22.878Z,57.78
2023-02-20T03:15:15.377Z,57.94
2023-02-20T03:17:48.254Z,57.93
2023-02-20T03:20:17.740Z,58.00
2023-02-20T03:22:51.643Z,57.88
2023-02-20T03:25:23.774Z,58.31
2023-02-20T03:27:55.516Z,58.18
2023-02-20T03:30:28.645Z,58.00
2023-02-20T03:33:19.619Z,57.77
2023-02-20T03:36:07.228Z,58.06
2023-02-20T03:38:57.324Z,58.04
2023-02-20T03:41:46.719Z,57.88
2023-02-20T03:44:16.647Z,58.23
2023-02-20T03:46:46.664Z,58.20
2023-02-20T03:49:18.719Z,58.20
2023-02-20T03:51:46.564Z,57.81
2023-02-20T03:54:16.338Z,58.26
2023-02-20T03:56:46.018Z,58.49
2023-02-20T03:59:17.447Z,58.11
2023-02-20T04:01:47.849Z,58.20
2023-02-20T04:04:21.698Z,58.07
2023-02-20T04:06:52.543Z,58.38
2023-02-20T04:09:25.450Z,58.32
2023-02-20T04:11:56.946Z,58.38
2023-02-20T04:14:28.266Z,58.43
2023-02-20T04:16:59.745Z,58.38
2023-02-20T04:19:27.433Z,58.57
2023-02-20T04:21:57.903Z,58.58
2023-02-20T04:24:30.649Z,58.36
2023-02-20T04:26:58.881Z,58.77
2023-02-20T04:29:27.084Z,58.76
2023-02-20T04:31:54.788Z,58.41
2023-02-20T04:34:22.785Z,58.52
2023-02-20T04:36:51.746Z,58.56
2023-02-20T04:39:22.200Z,58.42
2023-02-20T04:41:51.167Z,58.38
2023-02-20T04:44:34.024Z,58.64
2023-02-20T04:47:03.474Z,58.82
2023-02-20T04:49:31.227Z,58.55
2023-02-20T04:51:58.852Z,58.44
2023-02-20T04:54:26.659Z,58.28
2023-02-20T04:56:55.625Z,58.27
2023-02-20T04:59:23.576Z,58.40
2023-02-20T05:01:52.184Z,58.46
2023-02-20T05:04:21.042Z,58.35
2023-02-20T05:06:51.010Z,58.34
2023-02-20T05:09:18.987Z,58.34
2023-02-20T05:11:46.593Z,58.32
2023-02-20T05:14:15.765Z,58.70
2023-02-20T05:16:45.517Z,58.39
2023-02-20T05:19:13.932Z,57.97
2023-02-20T05:22:01.023Z,58.47
2023-02-20T05:24:29.766Z,58.28
2023-02-20T05:26:57.654Z,58.34
2023-02-20T05:29:26.697Z,58.52
2023-02-20T05:31:54.357Z,58.53
2023-02-20T05:34:22.689Z,58.44
2023-02-20T05:36:50.378Z,58.65
2023-02-20T05:39:18.008Z,58.47
2023-02-20T05:41:46.086Z,58.53
2023-02-20T05:44:13.757Z,58.81
2023-02-20T05:46:43.626Z,58.54
2023-02-20T05:49:11.979Z,58.70
2023-02-20T05:51:40.101Z,58.49
2023-02-20T05:54:07.732Z,58.40
2023-02-20T05:56:35.376Z,58.53
2023-02-20T05:59:03.082Z,58.65
2023-02-20T06:01:32.463Z,58.65
2023-02-20T06:04:02.339Z,58.61
2023-02-20T06:06:33.652Z,58.52
2023-02-20T06:09:01.330Z,58.50
2023-02-20T06:11:28.923Z,58.66
2023-02-20T06:13:56.951Z,58.66
2023-02-20T06:16:26.146Z,58.64
2023-02-20T06:18:54.072Z,58.53
2023-02-20T06:21:24.282Z,58.54
2023-02-20T06:23:54.219Z,58.32
2023-02-20T06:26:22.824Z,58.39
2023-02-20T06:28:50.813Z,58.58
2023-02-20T06:31:23.858Z,58.71
2023-02-20T06:33:51.650Z,58.73
2023-02-20T06:36:24.169Z,58.57
2023-02-20T06:38:52.188Z,58.92
2023-02-20T06:41:20.098Z,58.69
2023-02-20T06:43:47.880Z,58.47
2023-02-20T06:46:15.593Z,58.84
2023-02-20T06:48:47.148Z,58.70
2023-02-20T06:51:16.996Z,58.54
2023-02-20T06:53:45.979Z,58.71
2023-02-20T06:56:19.865Z,58.61
2023-02-20T06:58:47.858Z,58.50
2023-02-20T07:01:15.531Z,58.83
2023-02-20T07:03:43.562Z,58.65
2023-02-20T07:06:11.621Z,58.91
2023-02-20T07:08:39.630Z,58.88
2023-02-20T07:11:09.003Z,58.93
2023-02-20T07:13:36.643Z,59.02
2023-02-20T07:16:04.470Z,59.00
2023-02-20T07:18:32.107Z,58.92
2023-02-20T07:20:59.696Z,58.95
2023-02-20T07:23:27.487Z,59.03
2023-02-20T07:25:55.157Z,59.13
2023-02-20T07:28:24.188Z,58.96
2023-02-20T07:30:51.815Z,58.98
2023-02-20T07:33:20.324Z,59.08
2023-02-20T07:35:47.971Z,59.03
2023-02-20T07:38:15.600Z,59.02
2023-02-20T07:40:43.279Z,59.06
2023-02-20T07:43:10.937Z,58.85
2023-02-20T07:45:40.125Z,58.84
2023-02-20T07:48:07.790Z,58.94
2023-02-20T07:50:35.564Z,59.19
2023-02-20T07:53:03.186Z,58.84
2023-02-20T07:55:30.837Z,59.20
2023-02-20T07:57:59.059Z,59.14
2023-02-20T08:00:28.137Z,59.12
2023-02-20T08:02:59.430Z,58.81
2023-02-20T08:05:28.428Z,59.13
2023-02-20T08:07:57.261Z,59.38
2023-02-20T08:10:27.128Z,59.14
2023-02-20T08:12:55.672Z,58.70
2023-02-20T08:15:24.510Z,59.21
2023-02-20T08:17:52.444Z,59.09
2023-02-20T08:20:22.418Z,59.06
2023-02-20T08:22:51.864Z,59.15
2023-02-20T08:25:19.811Z,59.34
2023-02-20T08:27:49.708Z,58.85
2023-02-20T08:30:23.727Z,58.81
2023-02-20T08:32:51.679Z,57.03
2023-02-20T08:35:21.337Z,55.05
2023-02-20T08:37:48.962Z,53.92
2023-02-20T08:40:16.705Z,53.35
2023-02-20T08:42:44.413Z,52.98
2023-02-20T08:45:12.720Z,53.14
2023-02-20T08:47:40.317Z,53.01
2023-02-20T08:50:07.961Z,52.53
2023-02-20T08:52:36.968Z,52.83
2023-02-20T08:55:04.994Z,52.67
2023-02-20T08:57:32.592Z,52.82
2023-02-20T09:00:00.240Z,52.41
2023-02-20T09:02:29.455Z,52.16
2023-02-20T09:04:58.148Z,52.04
2023-02-20T09:07:26.042Z,51.72
2023-02-20T09:09:55.463Z,51.12
2023-02-20T09:12:23.194Z,50.88
2023-02-20T09:14:50.866Z,51.16
2023-02-20T09:17:18.524Z,51.79
2023-02-20T09:19:46.187Z,51.66
2023-02-20T09:22:13.857Z,51.88
2023-02-20T09:24:42.024Z,51.92
2023-02-20T09:27:11.099Z,51.68
2023-02-20T09:29:41.141Z,51.78
2023-02-20T09:32:08.890Z,52.57
2023-02-20T09:34:36.835Z,51.69
2023-02-20T09:37:05.455Z,52.32
2023-02-20T09:39:33.270Z,51.68
2023-02-20T09:42:12.503Z,51.41
2023-02-20T09:44:50.816Z,51.18
2023-02-20T09:47:31.255Z,50.32
2023-02-20T09:50:03.680Z,50.19
2023-02-20T09:52:35.427Z,50.32
2023-02-20T09:55:06.876Z,50.61
2023-02-20T09:57:37.774Z,50.96
2023-02-20T10:00:12.786Z,51.20
2023-02-20T10:02:43.802Z,51.28
2023-02-20T10:05:20.000Z,51.00
2023-02-20T10:07:49.907Z,50.60
2023-02-20T10:10:21.085Z,50.19
2023-02-20T10:13:01.280Z,49.89
2023-02-20T10:15:39.671Z,49.94
2023-02-20T10:18:20.766Z,50.47
2023-02-20T10:20:58.336Z,50.26
2023-02-20T10:23:36.718Z,50.06
2023-02-20T10:26:09.306Z,49.89
2023-02-20T10:28:37.233Z,50.00
2023-02-20T10:31:20.159Z,50.24
2023-02-20T10:33:52.547Z,50.72
2023-02-20T10:36:24.955Z,50.12
2023-02-20T10:38:56.874Z,49.90
2023-02-20T10:41:30.832Z,49.36
2023-02-20T10:44:06.602Z,49.61
2023-02-20T10:46:48.902Z,49.58
2023-02-20T10:49:23.386Z,49.73
2023-02-20T10:51:56.474Z,50.20
2023-02-20T10:54:30.584Z,50.29
2023-02-20T10:57:04.367Z,49.91
2023-02-20T10:59:39.735Z,50.28
2023-02-20T11:02:16.544Z,49.98
2023-02-20T11:04:51.392Z,49.73
2023-02-20T11:07:22.219Z,49.84
2023-02-20T11:09:50.076Z,49.18
2023-02-20T11:12:27.668Z,49.03
2023-02-20T11:14:58.569Z,48.93
2023-02-20T11:17:30.512Z,49.23
2023-02-20T11:20:00.769Z,49.33
2023-02-20T11:22:43.221Z,48.28
2023-02-20T11:25:21.647Z,48.61
2023-02-20T11:27:52.349Z,48.80
2023-02-20T11:30:29.302Z,48.58
2023-02-20T11:33:06.440Z,48.74
2023-02-20T11:35:39.304Z,49.76
2023-02-20T11:38:33.634Z,49.28
2023-02-20T11:41:08.608Z,48.91
2023-02-20T11:43:43.579Z,48.96
2023-02-20T11:46:16.674Z,49.27
2023-02-20T11:49:05.416Z,49.86
2023-02-20T11:51:36.026Z,49.47
2023-02-20T11:54:14.370Z,50.15
2023-02-20T11:56:57.097Z,49.68
2023-02-20T11:59:30.476Z,49.30
2023-02-20T12:02:22.430Z,50.05
2023-02-20T12:05:12.888Z,50.73
2023-02-20T12:07:43.962Z,50.55
2023-02-20T12:10:25.181Z,50.21
2023-02-20T12:12:54.030Z,50.24
2023-02-20T12:15:25.241Z,50.11
2023-02-20T12:18:34.352Z,49.67
2023-02-20T12:21:14.688Z,48.84
2023-02-20T12:23:51.920Z,48.86
2023-02-20T12:26:37.594Z,48.14
2023-02-20T12:29:16.249Z,49.35
2023-02-20T12:31:56.736Z,49.27
2023-02-20T12:34:54.475Z,50.29
2023-02-20T12:37:35.322Z,50.31
2023-02-20T12:40:23.998Z,49.54
2023-02-20T12:42:56.959Z,48.73
2023-02-20T12:45:31.756Z,48.57
2023-02-20T12:48:14.090Z,48.70
2023-02-20T12:50:49.508Z,48.10
2023-02-20T12:53:48.471Z,47.17
2023-02-20T12:56:28.228Z,47.16
2023-02-20T12:59:05.876Z,48.68
2023-02-20T13:01:40.261Z,46.00
2023-02-20T13:04:21.466Z,45.54
2023-02-20T13:06:56.533Z,46.30
2023-02-20T13:09:27.982Z,46.48
2023-02-20T13:11:59.453Z,46.81
2023-02-20T13:14:36.824Z,46.70
2023-02-20T13:17:13.682Z,46.24
2023-02-20T13:19:46.206Z,47.13
2023-02-20T13:22:13.880Z,47.20
2023-02-20T13:24:42.993Z,47.30
2023-02-20T13:27:12.029Z,47.06
2023-02-20T13:29:56.833Z,47.37
2023-02-20T13:32:27.455Z,46.81
2023-02-20T13:34:56.744Z,46.42
2023-02-20T13:37:55.687Z,46.65
2023-02-20T13:41:05.409Z,46.51
2023-02-20T13:43:34.746Z,46.40
2023-02-20T13:46:22.646Z,46.67
2023-02-20T13:48:52.536Z,46.92
2023-02-20T13:51:37.430Z,47.25
2023-02-20T13:54:29.825Z,47.16
2023-02-20T13:57:04.884Z,46.76
2023-02-20T13:59:34.545Z,46.82
2023-02-20T14:02:15.913Z,47.03
2023-02-20T14:04:56.963Z,47.46
2023-02-20T14:07:33.588Z,47.51
2023-02-20T14:10:03.145Z,47.17
2023-02-20T14:12:32.542Z,47.54
2023-02-20T14:15:03.906Z,47.78
2023-02-20T14:17:32.903Z,48.08
2023-02-20T14:20:13.781Z,48.03
2023-02-20T14:22:42.179Z,47.67
2023-02-20T14:25:21.369Z,47.54
2023-02-20T14:27:50.879Z,47.60
2023-02-20T14:30:20.901Z,47.78
2023-02-20T14:32:50.949Z,47.50
2023-02-20T14:35:37.097Z,47.19
2023-02-20T14:38:14.434Z,47.16
2023-02-20T14:40:43.942Z,46.72
2023-02-20T14:43:18.425Z,45.87
2023-02-20T14:45:47.380Z,45.87
2023-02-20T14:48:27.701Z,45.70
2023-02-20T14:51:09.713Z,46.17
2023-02-20T14:53:38.217Z,46.51
2023-02-20T14:56:15.041Z,46.22
2023-02-20T14:58:44.464Z,46.29
2023-02-20T15:01:20.728Z,46.42
2023-02-20T15:04:01.643Z,46.05
2023-02-20T15:06:31.260Z,46.40
2023-02-20T15:09:07.261Z,46.16
2023-02-20T15:11:47.581Z,46.67
2023-02-20T15:14:22.373Z,46.87
2023-02-20T15:16:58.145Z,47.07
2023-02-20T15:19:35.090Z,46.65
2023-02-20T15:22:02.709Z,46.47
2023-02-20T15:24:41.156Z,46.21
2023-02-20T15:27:15.943Z,46.30
2023-02-20T15:29:46.288Z,47.70
2023-02-20T15:32:23.525Z,46.78
2023-02-20T15:34:55.442Z,46.61
2023-02-20T15:37:33.766Z,46.43
2023-02-20T15:40:20.126Z,46.82
2023-02-20T15:42:48.189Z,46.98
2023-02-20T15:45:17.415Z,47.56
2023-02-20T15:47:45.083Z,47.53
2023-02-20T15:50:12.765Z,47.73
2023-02-20T15:52:40.424Z,47.17
2023-02-20T15:55:08.320Z,47.23
2023-02-20T15:57:35.913Z,47.17
2023-02-20T16:00:03.596Z,47.01
2023-02-20T16:02:33.331Z,46.96
2023-02-20T16:05:01.220Z,46.65
2023-02-20T16:07:28.827Z,46.36
2023-02-20T16:09:56.462Z,46.14
2023-02-20T16:12:28.835Z,45.99
2023-02-20T16:14:56.466Z,46.13
2023-02-20T16:17:27.323Z,46.26
2023-02-20T16:19:56.737Z,46.38
2023-02-20T16:22:24.387Z,46.34
2023-02-20T16:24:51.975Z,46.24
2023-02-20T16:27:24.080Z,46.54
2023-02-20T16:29:53.754Z,46.70
2023-02-20T16:32:25.207Z,46.63
2023-02-20T16:34:55.905Z,46.52
2023-02-20T16:37:25.342Z,47.05
2023-02-20T16:39:52.969Z,47.27
2023-02-20T16:42:26.897Z,47.25
2023-02-20T16:44:55.801Z,47.72
2023-02-20T16:47:25.059Z,47.83
2023-02-20T16:49:53.137Z,47.85
2023-02-20T16:52:27.379Z,48.00
2023-02-20T16:54:56.270Z,48.22
2023-02-20T16:57:24.591Z,48.23
2023-02-20T16:59:55.487Z,48.17
2023-02-20T17:02:26.374Z,48.69
2023-02-20T17:04:54.300Z,48.69
2023-02-20T17:07:22.215Z,48.58
2023-02-20T17:09:51.605Z,48.81
2023-02-20T17:12:22.067Z,48.78
2023-02-20T17:14:49.930Z,48.76
2023-02-20T17:17:17.783Z,48.81
2023-02-20T17:19:45.526Z,48.20
2023-02-20T17:22:14.883Z,48.34
2023-02-20T17:24:43.504Z,48.79
2023-02-20T17:27:14.088Z,48.91
2023-02-20T17:29:44.068Z,48.84
2023-02-20T17:32:11.845Z,49.24
2023-02-20T17:34:40.001Z,48.92
2023-02-20T17:37:09.097Z,48.85
2023-02-20T17:39:38.249Z,49.18
2023-02-20T17:42:06.172Z,49.31
2023-02-20T17:44:35.356Z,49.54
2023-02-20T17:47:02.992Z,49.71
2023-02-20T17:49:30.689Z,49.46
2023-02-20T17:52:00.154Z,49.50
2023-02-20T17:54:28.643Z,49.61
2023-02-20T17:56:56.698Z,49.47
2023-02-20T17:59:25.198Z,49.49
2023-02-20T18:01:54.787Z,49.15
2023-02-20T18:04:23.099Z,49.11
2023-02-20T18:06:50.705Z,49.54
2023-02-20T18:09:19.327Z,48.88
2023-02-20T18:11:47.215Z,49.02
2023-02-20T18:14:15.519Z,49.24
2023-02-20T18:16:43.381Z,49.50
2023-02-20T18:19:14.593Z,49.98
2023-02-20T18:21:44.688Z,49.82
2023-02-20T18:24:13.231Z,49.65
2023-02-20T18:26:40.890Z,49.64
2023-02-20T18:29:08.591Z,50.00
2023-02-20T18:31:36.590Z,49.82
2023-02-20T18:34:04.750Z,49.98
2023-02-20T18:36:33.803Z,49.80
2023-02-20T18:39:01.443Z,49.74
2023-02-20T18:41:29.149Z,49.78
2023-02-20T18:43:56.802Z,49.96
2023-02-20T18:46:29.874Z,49.68
2023-02-20T18:48:58.877Z,49.68
2023-02-20T18:51:28.476Z,49.82
2023-02-20T18:53:58.061Z,50.13
2023-02-20T18:56:26.644Z,49.99
2023-02-20T18:58:54.847Z,50.36
2023-02-20T19:01:24.522Z,50.13
2023-02-20T19:03:54.048Z,49.44
2023-02-20T19:06:26.908Z,50.07
2023-02-20T19:08:54.665Z,50.41
2023-02-20T19:11:23.777Z,50.73
2023-02-20T19:13:51.636Z,50.42
2023-02-20T19:16:19.536Z,50.98
2023-02-20T19:18:50.839Z,50.48
2023-02-20T19:21:19.788Z,50.06
2023-02-20T19:23:48.195Z,50.75
2023-02-20T19:26:16.912Z,50.20
2023-02-20T19:28:46.916Z,50.15
2023-02-20T19:31:15.797Z,50.30
2023-02-20T19:33:43.551Z,50.16
2023-02-20T19:36:11.210Z,50.38
2023-02-20T19:38:39.176Z,50.47
2023-02-20T19:41:07.132Z,50.20
2023-02-20T19:43:34.859Z,50.35
2023-02-20T19:46:03.898Z,50.75
2023-02-20T19:48:31.582Z,50.65
2023-02-20T19:50:59.172Z,50.63
2023-02-20T19:53:26.799Z,50.72
2023-02-20T19:55:54.705Z,50.62
2023-02-20T19:58:22.361Z,50.77
2023-02-20T20:00:50.170Z,50.82
2023-02-20T20:03:19.254Z,50.96
2023-02-20T20:05:46.907Z,50.57
2023-02-20T20:08:14.548Z,50.63
2023-02-20T20:10:42.203Z,50.82
2023-02-20T20:13:10.165Z,50.81
2023-02-20T20:15:37.956Z,51.36
2023-02-20T20:18:07.388Z,50.88
2023-02-20T20:20:36.623Z,51.42
2023-02-20T20:23:05.964Z,51.25
2023-02-20T20:25:33.768Z,51.65
2023-02-20T20:28:02.789Z,51.40
2023-02-20T20:30:34.161Z,51.34
2023-02-20T20:33:02.046Z,51.52
2023-02-20T20:35:31.125Z,51.45
2023-02-20T20:38:01.078Z,51.51
2023-02-20T20:40:29.835Z,51.46
2023-02-20T20:42:58.506Z,51.84
2023-02-20T20:45:26.556Z,51.80
2023-02-20T20:47:54.229Z,51.46
2023-02-20T20:50:23.599Z,51.88
2023-02-20T20:52:51.567Z,51.73
2023-02-20T20:55:20.598Z,51.90
2023-02-20T20:57:51.428Z,52.08
2023-02-20T21:00:24.302Z,52.05
2023-02-20T21:02:52.645Z,52.15
2023-02-20T21:05:23.203Z,51.94
2023-02-20T21:07:51.096Z,52.42
2023-02-20T21:10:20.618Z,52.28
2023-02-20T21:12:48.804Z,52.17
2023-02-20T21:15:17.127Z,52.34
2023-02-20T21:17:45.376Z,52.24
2023-02-20T21:20:15.421Z,52.67
2023-02-20T21:22:43.172Z,52.17
2023-02-20T21:25:11.220Z,52.52
2023-02-20T21:27:40.325Z,52.29
2023-02-20T21:30:10.170Z,52.43
2023-02-20T21:32:38.018Z,52.83
2023-02-20T21:35:06.525Z,52.67
2023-02-20T21:37:34.182Z,52.58
2023-02-20T21:40:02.640Z,52.50
2023-02-20T21:42:48.019Z,52.68
2023-02-20T21:45:17.117Z,52.82
2023-02-20T21:47:44.744Z,52.64
2023-02-20T21:50:16.199Z,52.88
2023-02-20T21:52:45.759Z,52.83
2023-02-20T21:55:16.158Z,52.80
2023-02-20T21:57:43.786Z,52.89
2023-02-20T22:00:11.937Z,52.75
2023-02-20T22:02:40.202Z,52.55
2023-02-20T22:05:07.731Z,53.00
2023-02-20T22:07:53.376Z,52.94
2023-02-20T22:10:38.641Z,52.98
2023-02-20T22:13:24.338Z,52.70
2023-02-20T22:16:09.693Z,52.95
2023-02-20T22:18:56.108Z,52.88
2023-02-20T22:21:43.555Z,53.21
2023-02-20T22:24:37.902Z,53.04
2023-02-20T22:27:23.843Z,53.10
2023-02-20T22:30:09.345Z,53.13
2023-02-20T22:32:54.700Z,53.33
2023-02-20T22:35:41.211Z,53.31
2023-02-20T22:38:26.555Z,53.37
2023-02-20T22:41:11.994Z,53.08
2023-02-20T22:43:57.167Z,53.30
2023-02-20T22:46:42.748Z,53.42
2023-02-20T22:49:27.871Z,53.32
2023-02-20T22:52:14.644Z,53.67
2023-02-20T22:55:05.212Z,53.25
2023-02-20T22:57:51.153Z,53.20
2023-02-20T23:00:36.543Z,53.50
2023-02-20T23:03:21.964Z,53.62
2023-02-20T23:06:16.939Z,53.74
2023-02-20T23:09:04.457Z,53.81
2023-02-20T23:11:51.750Z,53.95
2023-02-20T23:14:37.037Z,53.59
2023-02-20T23:17:36.350Z,53.82
2023-02-20T23:20:24.670Z,53.79
2023-02-20T23:23:10.659Z,53.80
2023-02-20T23:25:57.231Z,53.82
2023-02-20T23:28:42.535Z,53.78
2023-02-20T23:31:28.058Z,53.96
2023-02-20T23:34:13.366Z,54.20
2023-02-20T23:37:04.122Z,53.79
2023-02-20T23:39:49.584Z,54.10
2023-02-20T23:42:37.598Z,53.99
2023-02-20T23:45:23.902Z,54.07
2023-02-20T23:48:09.355Z,54.00
2023-02-20T23:50:55.161Z,54.35
2023-02-20T23:53:40.428Z,54.10
2023-02-20T23:56:26.204Z,54.12
2023-02-20T23:59:12.674Z,53.99
